Time;durP1;ratioP1;P1;durP2;ratioP2;P2;SDS_P1;SDS_P2;PMS_P1;PMS_P2;Temp;Humidity;BMP_temperature;BMP_pressure;BME280_temperature;BME280_humidity;BME280_pressure;Samples;Min_cycle;Max_cycle;Signal;HPM_P1;HPM_P2
2023/06/15 00:02:12;;;;;;;12.70;9.30;;;;;;;10.13;100.00;99078.36;269729;1273;22528;-85
2023/06/15 00:08:34;;;;;;;14.00;8.70;;;;;;;10.06;100.00;99073.72;268802;1272;22650;-85
2023/06/15 00:14:36;;;;;;;13.60;8.20;;;;;;;9.94;100.00;99076.58;268937;1272;22520;-85
2023/06/15 00:20:39;;;;;;;13.90;7.60;;;;;;;9.92;100.00;99073.66;269548;1273;22228;-86
2023/06/15 00:26:42;;;;;;;12.70;8.50;;;;;;;9.92;100.00;99076.86;271910;1273;22872;-85
2023/06/15 00:32:44;;;;;;;10.90;8.10;;;;;;;9.81;100.00;99081.37;272496;1257;22935;-85
2023/06/15 00:39:26;;;;;;;13.10;8.00;;;;;;;9.77;100.00;99086.08;272582;1273;22190;-85
2023/06/15 00:46:09;;;;;;;10.90;8.70;;;;;;;9.78;100.00;99086.17;272255;1272;22211;-86
2023/06/15 00:52:13;;;;;;;10.10;7.30;;;;;;;9.67;100.00;99084.36;272458;1274;22246;-85
2023/06/15 00:58:15;;;;;;;10.70;7.70;;;;;;;9.63;100.00;99081.10;272947;1273;22341;-86
2023/06/15 01:04:37;;;;;;;12.00;8.30;;;;;;;9.53;100.00;99089.91;273019;1274;22214;-85
2023/06/15 01:10:39;;;;;;;14.50;9.30;;;;;;;9.42;100.00;99085.20;269958;1273;23253;-85
2023/06/15 01:16:43;;;;;;;12.50;8.60;;;;;;;9.35;100.00;99087.17;271811;1273;23013;-86
2023/06/15 01:23:50;;;;;;;11.70;8.80;;;;;;;9.41;100.00;99086.11;270203;1273;22640;-85
2023/06/15 01:29:52;;;;;;;13.00;9.20;;;;;;;9.48;100.00;99091.80;268780;1273;22646;-85
2023/06/15 01:35:54;;;;;;;14.10;9.50;;;;;;;9.57;100.00;99091.61;269770;1272;23181;-86
2023/06/15 01:41:56;;;;;;;14.00;9.00;;;;;;;9.63;100.00;99091.27;268936;1273;23723;-85
2023/06/15 01:48:20;;;;;;;14.60;8.40;;;;;;;9.70;100.00;99087.77;270524;1273;22235;-85
2023/06/15 01:55:02;;;;;;;13.50;8.80;;;;;;;9.81;100.00;99096.84;272623;1273;22372;-86
2023/06/15 02:01:38;;;;;;;13.70;8.80;;;;;;;9.87;100.00;99101.24;272659;1273;23117;-85
2023/06/15 02:08:20;;;;;;;16.80;9.60;;;;;;;9.93;100.00;99100.39;272538;1259;22336;-85
2023/06/15 02:15:03;;;;;;;17.10;10.40;;;;;;;10.04;100.00;99095.26;272535;1267;22197;-85
2023/06/15 02:21:25;;;;;;;13.50;9.20;;;;;;;10.13;100.00;99094.00;272518;1273;22170;-85
2023/06/15 02:27:27;;;;;;;16.50;10.70;;;;;;;10.24;100.00;99093.22;272376;1272;22916;-85
2023/06/15 02:33:28;;;;;;;24.50;14.20;;;;;;;10.33;100.00;99084.20;272514;1272;22199;-86
2023/06/15 02:39:30;;;;;;;35.10;16.70;;;;;;;10.41;100.00;99084.39;272502;1273;22779;-86
2023/06/15 02:45:32;;;;;;;39.20;19.70;;;;;;;10.50;100.00;99089.74;271620;1273;22635;-85
2023/06/15 02:51:46;;;;;;;45.10;19.70;;;;;;;10.55;100.00;99091.36;270058;1273;22598;-85
2023/06/15 02:57:48;;;;;;;32.40;17.70;;;;;;;10.59;100.00;99099.07;272736;1274;22248;-85
2023/06/15 03:04:30;;;;;;;26.90;15.10;;;;;;;10.66;100.00;99101.52;272739;1275;22235;-85
2023/06/15 03:11:13;;;;;;;17.30;11.80;;;;;;;10.71;100.00;99105.80;272478;1273;23329;-85
2023/06/15 03:17:17;;;;;;;16.80;11.20;;;;;;;10.65;100.00;99100.48;270289;1272;23343;-85
2023/06/15 03:23:20;;;;;;;20.20;12.00;;;;;;;10.62;100.00;99100.92;269707;1259;22638;-85
2023/06/15 03:29:26;;;;;;;22.10;12.90;;;;;;;10.64;100.00;99102.36;270916;1262;22544;-84
2023/06/15 03:36:10;;;;;;;23.70;12.60;;;;;;;10.72;100.00;99100.41;272339;1272;22256;-86
2023/06/15 03:43:13;;;;;;;17.70;12.10;;;;;;;10.84;100.00;99106.67;270975;1273;22160;-85
2023/06/15 03:49:36;;;;;;;20.00;11.90;;;;;;;10.94;100.00;99117.12;271605;1272;23586;-85
2023/06/15 03:55:39;;;;;;;22.50;12.80;;;;;;;11.05;100.00;99123.96;272466;1273;22523;-85
2023/06/15 04:02:02;;;;;;;23.00;13.30;;;;;;;11.17;100.00;99123.16;272603;1273;22112;-85
2023/06/15 04:08:05;;;;;;;18.60;12.90;;;;;;;11.29;100.00;99116.23;272446;1272;22255;-85
2023/06/15 04:14:06;;;;;;;19.60;13.20;;;;;;;11.37;100.00;99111.39;272063;1273;23734;-86
2023/06/15 04:20:23;;;;;;;22.10;12.30;;;;;;;11.50;100.00;99119.34;270018;1273;23519;-85
2023/06/15 04:27:12;;;;;;;16.30;11.20;;;;;;;11.62;100.00;99121.59;272926;1262;22386;-85
2023/06/15 04:33:15;;;;;;;19.10;12.10;;;;;;;11.73;100.00;99116.19;271310;1273;22349;-85
2023/06/15 04:39:59;;;;;;;16.40;11.90;;;;;;;11.83;100.00;99117.62;272491;1273;23441;-84
2023/06/15 04:46:21;;;;;;;21.90;12.00;;;;;;;11.93;100.00;99120.91;271713;1261;305099;-85
2023/06/15 04:52:23;;;;;;;19.20;12.40;;;;;;;12.04;100.00;99120.74;272101;1262;22572;-85
2023/06/15 04:58:25;;;;;;;22.10;15.30;;;;;;;12.13;100.00;99119.80;271371;1273;22390;-85
2023/06/15 05:04:47;;;;;;;30.80;16.90;;;;;;;12.22;100.00;99124.02;270625;1272;22865;-85
2023/06/15 05:10:50;;;;;;;22.70;14.50;;;;;;;12.33;100.00;99132.09;270335;1262;22267;-85
2023/06/15 05:16:55;;;;;;;28.70;16.80;;;;;;;12.50;100.00;99143.86;270316;1272;22215;-84
2023/06/15 05:22:58;;;;;;;32.70;18.60;;;;;;;12.63;100.00;99146.61;271609;1272;22473;-85
2023/06/15 05:29:03;;;;;;;31.40;17.90;;;;;;;12.76;100.00;99147.15;272060;1273;23418;-84
2023/06/15 05:35:07;;;;;;;32.30;17.30;;;;;;;12.87;100.00;99151.90;272202;1272;22342;-84
2023/06/15 05:41:09;;;;;;;36.40;19.40;;;;;;;12.99;100.00;99146.16;269841;1262;22691;-83
2023/06/15 05:47:32;;;;;;;46.10;27.40;;;;;;;13.16;100.00;99150.95;270628;1274;22232;-85
2023/06/15 05:53:35;;;;;;;34.70;22.30;;;;;;;13.29;100.00;99158.38;270193;1270;22578;-85
2023/06/15 05:59:40;;;;;;;33.00;22.10;;;;;;;13.42;100.00;99163.36;269227;1272;22535;-85
2023/06/15 06:05:43;;;;;;;40.10;26.10;;;;;;;13.59;100.00;99164.65;270461;1271;22199;-85
2023/06/15 06:12:10;;;;;;;36.40;22.90;;;;;;;13.83;100.00;99160.20;271462;1273;23499;-84
2023/06/15 06:18:32;;;;;;;30.80;21.70;;;;;;;14.18;100.00;99163.52;271701;1273;22345;-84
2023/06/15 06:24:34;;;;;;;29.60;20.00;;;;;;;14.55;100.00;99164.11;271030;1272;22547;-85
2023/06/15 06:30:56;;;;;;;30.60;19.90;;;;;;;14.81;100.00;99164.36;270400;1272;23642;-84
2023/06/15 06:36:58;;;;;;;27.50;18.20;;;;;;;15.06;100.00;99160.71;271450;1269;22529;-84
2023/06/15 06:43:05;;;;;;;27.70;19.80;;;;;;;15.24;100.00;99160.01;270257;1272;22542;-86
2023/06/15 06:49:09;;;;;;;25.30;17.20;;;;;;;15.34;100.00;99155.86;270190;1272;22619;-84
2023/06/15 06:55:30;;;;;;;29.60;17.60;;;;;;;15.69;100.00;99153.45;269899;1272;25284;-84
2023/06/15 07:01:54;;;;;;;22.30;15.50;;;;;;;16.25;100.00;99157.34;269320;1272;23708;-85
2023/06/15 07:07:56;;;;;;;22.10;14.00;;;;;;;16.78;100.00;99156.74;269419;1273;22574;-84
2023/06/15 07:13:58;;;;;;;18.70;13.60;;;;;;;16.83;100.00;99159.23;269874;1262;22945;-86
2023/06/15 07:20:00;;;;;;;16.00;12.70;;;;;;;17.02;100.00;99153.14;272771;1273;23691;-85
2023/06/15 07:26:03;;;;;;;13.40;9.70;;;;;;;17.60;99.68;99148.82;272389;1272;22337;-84
2023/06/15 07:32:05;;;;;;;14.30;11.00;;;;;;;17.86;97.20;99147.34;272400;1272;22316;-86
2023/06/15 07:38:07;;;;;;;14.70;10.80;;;;;;;17.70;95.46;99148.70;271970;1272;22541;-85
2023/06/15 07:44:12;;;;;;;13.30;10.50;;;;;;;17.46;94.84;99151.80;272542;1262;22316;-85
2023/06/15 07:50:13;;;;;;;12.10;10.20;;;;;;;17.39;94.64;99153.31;271274;1269;22419;-85
2023/06/15 07:56:15;;;;;;;13.50;9.70;;;;;;;17.38;93.67;99154.36;272060;1272;23429;-86
2023/06/15 08:02:17;;;;;;;13.90;9.70;;;;;;;17.30;93.35;99152.80;270077;1272;22596;-86
2023/06/15 08:08:40;;;;;;;11.80;8.80;;;;;;;17.36;92.77;99155.88;269741;1273;22215;-86
2023/06/15 08:14:42;;;;;;;12.50;9.20;;;;;;;17.53;92.56;99159.15;270441;1262;22543;-85
2023/06/15 08:20:43;;;;;;;12.60;9.90;;;;;;;17.89;92.33;99157.20;271571;1267;22572;-85
2023/06/15 08:34:26;;;;;;;13.40;10.30;;;;;;;18.48;89.67;99168.48;272158;1272;22549;-86
2023/06/15 08:40:48;;;;;;;13.40;10.30;;;;;;;18.29;89.39;99162.39;271035;1262;22333;-85
2023/06/15 08:47:00;;;;;;;17.90;13.30;;;;;;;18.20;87.91;99164.20;272476;1273;22311;-85
2023/06/15 08:53:07;;;;;;;14.90;11.80;;;;;;;18.06;87.28;99165.06;272315;1272;22216;-84
2023/06/15 08:59:09;;;;;;;16.70;11.90;;;;;;;17.93;86.53;99172.23;268844;1272;23791;-85
2023/06/15 09:05:11;;;;;;;15.30;11.50;;;;;;;17.78;85.99;99174.14;269027;1259;22576;-85
2023/06/15 09:11:16;;;;;;;17.60;11.50;;;;;;;17.89;85.95;99166.83;268490;1272;22553;-85
2023/06/15 09:17:41;;;;;;;14.30;10.00;;;;;;;18.25;85.84;99163.55;269623;1274;22663;-85
2023/06/15 09:24:03;;;;;;;15.20;8.70;;;;;;;18.51;84.25;99164.39;271199;1273;22722;-84
2023/06/15 09:30:07;;;;;;;17.90;9.10;;;;;;;18.45;83.44;99164.72;270345;1272;22531;-85
2023/06/15 09:36:08;;;;;;;11.50;8.20;;;;;;;18.41;82.92;99161.65;271603;1273;22654;-84
2023/06/15 09:42:10;;;;;;;12.70;9.20;;;;;;;18.58;83.59;99155.46;271072;1273;23170;-85
2023/06/15 09:48:32;;;;;;;14.10;9.60;;;;;;;19.24;83.57;99154.17;270224;1273;22517;-84
2023/06/15 09:54:35;;;;;;;12.90;9.70;;;;;;;19.54;81.70;99151.70;269312;1273;22603;-84
2023/06/15 10:00:37;;;;;;;13.40;8.50;;;;;;;20.18;80.98;99151.98;269173;1272;22551;-85
2023/06/15 10:06:50;;;;;;;17.10;8.40;;;;;;;20.68;76.20;99144.83;269317;1272;24230;-85
2023/06/15 10:13:39;;;;;;;10.50;7.30;;;;;;;21.26;76.12;99137.93;269436;1273;22568;-84
2023/06/15 10:19:43;;;;;;;8.80;7.30;;;;;;;21.55;74.26;99138.65;269590;1273;22354;-86
2023/06/15 10:25:49;;;;;;;11.60;7.60;;;;;;;21.41;73.61;99137.24;270150;1266;22532;-87
2023/06/15 10:31:55;;;;;;;10.70;7.40;;;;;;;21.03;73.19;99136.63;269129;1273;22506;-85
2023/06/15 10:38:50;;;;;;;8.70;6.60;;;;;;;20.90;73.10;99133.02;269361;1273;25394;-86
2023/06/15 10:44:51;;;;;;;7.60;6.30;;;;;;;21.31;72.54;99127.52;269392;1270;22622;-86
2023/06/15 10:51:03;;;;;;;7.40;5.50;;;;;;;21.93;71.29;99126.40;269806;1262;23350;-85
2023/06/15 10:57:20;;;;;;;7.00;5.50;;;;;;;22.51;69.92;99118.54;271186;1268;22560;-83
2023/06/15 11:03:41;;;;;;;10.70;6.20;;;;;;;22.30;67.38;99108.45;269633;1263;22644;-86
2023/06/15 11:09:44;;;;;;;11.20;7.00;;;;;;;22.10;68.34;99101.86;269886;1256;24360;-86
2023/06/15 11:16:05;;;;;;;9.30;7.00;;;;;;;22.77;68.39;99097.46;271990;1272;22711;-86
2023/06/15 11:22:07;;;;;;;8.10;6.10;;;;;;;23.20;67.43;99092.37;272219;1262;22323;-86
2023/06/15 11:28:09;;;;;;;7.20;6.40;;;;;;;23.50;66.18;99089.73;272200;1262;22350;-85
2023/06/15 11:34:32;;;;;;;7.60;5.90;;;;;;;23.96;64.85;99087.34;271114;1270;22643;-83
2023/06/15 11:40:34;;;;;;;8.40;5.60;;;;;;;24.45;63.01;99083.86;272265;1270;22649;-84
2023/06/15 11:47:00;;;;;;;8.20;6.70;;;;;;;24.70;60.62;99081.59;270400;1262;22343;-86
2023/06/15 11:53:02;;;;;;;6.50;5.80;;;;;;;24.82;60.85;99070.73;272120;1272;22237;-85
2023/06/15 11:59:03;;;;;;;7.30;5.30;;;;;;;24.75;59.95;99070.98;269365;1262;22641;-85
2023/06/15 12:05:05;;;;;;;6.00;5.40;;;;;;;24.69;58.05;99060.29;269306;1271;23927;-86
2023/06/15 12:11:07;;;;;;;5.70;5.10;;;;;;;24.38;58.08;99052.20;269351;1273;22483;-85
2023/06/15 12:17:37;;;;;;;7.80;5.80;;;;;;;24.09;56.97;99044.27;270046;1273;22427;-86
2023/06/15 12:23:49;;;;;;;6.00;5.20;;;;;;;23.78;56.61;99037.17;270832;1264;22575;-85
2023/06/15 12:29:54;;;;;;;6.90;5.20;;;;;;;23.59;55.38;99028.00;269633;1267;22493;-86
2023/06/15 12:35:59;;;;;;;7.30;5.40;;;;;;;23.20;54.65;99021.09;269845;1272;22558;-85
2023/06/15 12:42:01;;;;;;;7.40;5.70;;;;;;;22.95;54.14;99018.63;269112;1262;23020;-85
2023/06/15 12:48:05;;;;;;;6.00;5.10;;;;;;;22.53;53.63;99019.19;269404;1272;22648;-85
2023/06/15 12:54:07;;;;;;;8.60;5.50;;;;;;;22.23;53.69;99013.59;269636;1272;23411;-83
2023/06/15 13:00:10;;;;;;;10.20;5.70;;;;;;;21.77;52.87;99007.66;269253;1271;24256;-85
2023/06/15 13:06:53;;;;;;;6.90;6.10;;;;;;;21.49;52.48;99002.28;271968;1272;22214;-87
2023/06/15 13:13:22;;;;;;;7.90;5.80;;;;;;;21.61;51.92;98996.55;270173;1273;23424;-86
2023/06/15 13:19:24;;;;;;;5.70;5.00;;;;;;;21.65;51.47;98991.56;270126;1274;23215;-85
2023/06/15 13:26:06;;;;;;;6.70;5.30;;;;;;;21.81;51.83;98986.14;270089;1275;25234;-85
2023/06/15 13:32:31;;;;;;;5.80;5.10;;;;;;;21.99;51.78;98975.09;270067;1275;22590;-85
2023/06/15 13:38:33;;;;;;;6.10;5.50;;;;;;;22.11;52.19;98972.74;271228;1273;22565;-84
2023/06/15 13:44:35;;;;;;;6.70;5.60;;;;;;;22.21;52.45;98969.42;269904;1264;24369;-85
2023/06/15 13:50:36;;;;;;;6.30;5.70;;;;;;;22.27;52.53;98968.56;270745;1261;22330;-85
2023/06/15 13:56:54;;;;;;;6.40;5.80;;;;;;;22.24;52.92;98970.20;271366;1274;22215;-84
2023/06/15 14:03:04;;;;;;;6.60;6.00;;;;;;;22.33;52.42;98961.98;271623;1263;22380;-85
2023/06/15 14:09:06;;;;;;;7.00;6.30;;;;;;;22.36;51.00;98960.77;270073;1274;22536;-83
2023/06/15 14:15:09;;;;;;;7.80;5.70;;;;;;;22.32;50.82;98959.12;271192;1263;22232;-84
2023/06/15 14:21:11;;;;;;;7.30;6.30;;;;;;;22.03;51.51;98955.84;272238;1271;22628;-84
2023/06/15 14:27:12;;;;;;;8.00;6.60;;;;;;;22.07;51.30;98950.02;270393;1273;24283;-85
2023/06/15 14:33:14;;;;;;;6.70;5.70;;;;;;;22.08;51.06;98948.07;269836;1273;22317;-84
2023/06/15 14:39:17;;;;;;;7.50;6.40;;;;;;;21.92;51.29;98940.84;270427;1267;22639;-84
2023/06/15 14:45:20;;;;;;;8.80;7.40;;;;;;;21.72;51.67;98930.77;270349;1270;22326;-85
2023/06/15 14:52:02;;;;;;;8.30;6.40;;;;;;;21.68;50.25;98920.73;271763;1271;22159;-85
2023/06/15 14:58:24;;;;;;;8.70;6.30;;;;;;;21.77;50.26;98922.10;272546;1273;23003;-86
2023/06/15 15:05:06;;;;;;;6.90;6.20;;;;;;;21.93;50.06;98922.50;272473;1273;23506;-85
2023/06/15 15:11:21;;;;;;;8.60;5.80;;;;;;;22.07;49.87;98915.95;270153;1272;22718;-84
2023/06/15 15:17:25;;;;;;;8.10;6.20;;;;;;;22.05;49.92;98911.47;269221;1264;24219;-84
2023/06/15 15:23:27;;;;;;;6.50;5.90;;;;;;;22.01;49.48;98910.82;269207;1273;22573;-84
2023/06/15 15:30:09;;;;;;;8.40;5.80;;;;;;;22.02;49.79;98908.79;269611;1273;22340;-84
2023/06/15 15:36:35;;;;;;;7.50;6.50;;;;;;;21.95;50.44;98904.05;270601;1273;22241;-84
2023/06/15 15:42:37;;;;;;;7.30;6.60;;;;;;;21.81;50.56;98900.87;271011;1273;23382;-85
2023/06/15 15:48:39;;;;;;;8.10;6.00;;;;;;;21.75;51.31;98897.65;272024;1273;22157;-85
2023/06/15 15:54:41;;;;;;;6.80;6.10;;;;;;;21.69;50.41;98889.98;269089;1263;22540;-84
2023/06/15 16:00:43;;;;;;;8.00;6.50;;;;;;;21.59;50.11;98886.58;269804;1266;23716;-84
2023/06/15 16:07:05;;;;;;;7.70;6.00;;;;;;;21.56;50.07;98887.33;270737;1273;23065;-83
2023/06/15 16:13:08;;;;;;;9.40;6.80;;;;;;;21.51;50.21;98890.11;272403;1273;22236;-83
2023/06/15 16:19:10;;;;;;;7.40;6.40;;;;;;;21.50;50.76;98891.17;271305;1273;22663;-83
2023/06/15 16:25:13;;;;;;;6.70;6.00;;;;;;;21.51;50.60;98892.65;272471;1264;22337;-84
2023/06/15 16:31:55;;;;;;;8.60;6.30;;;;;;;21.49;49.94;98890.65;269274;1270;22554;-84
2023/06/15 16:37:56;;;;;;;8.60;6.50;;;;;;;21.46;49.87;98894.84;270617;1273;22626;-85
2023/06/15 16:43:58;;;;;;;9.70;6.50;;;;;;;21.40;50.13;98899.09;269422;1272;387546;-84
2023/06/15 16:50:00;;;;;;;8.00;7.00;;;;;;;21.33;50.36;98898.05;269900;1264;22647;-83
2023/06/15 16:56:01;;;;;;;7.20;6.30;;;;;;;21.23;51.25;98904.84;270679;1269;22917;-84
2023/06/15 17:02:03;;;;;;;6.80;6.10;;;;;;;21.11;51.16;98907.84;270035;1273;23394;-85
2023/06/15 17:08:06;;;;;;;9.10;7.40;;;;;;;21.02;52.16;98906.88;271096;1272;22226;-83
2023/06/15 17:14:08;;;;;;;9.50;7.30;;;;;;;20.92;52.22;98909.88;271098;1264;22653;-83
2023/06/15 17:20:10;;;;;;;12.20;9.20;;;;;;;20.86;52.19;98916.20;270295;1263;22546;-84
2023/06/15 17:26:39;;;;;;;13.20;9.50;;;;;;;20.81;53.18;98920.16;269794;1272;22477;-84
2023/06/15 17:32:41;;;;;;;14.70;9.70;;;;;;;20.72;54.04;98921.01;270102;1273;22594;-83
2023/06/15 17:38:42;;;;;;;15.90;9.00;;;;;;;20.58;55.05;98925.00;269673;1273;22657;-85
2023/06/15 17:44:44;;;;;;;11.00;8.70;;;;;;;20.44;55.42;98932.09;261843;1273;10001839;-85
2023/06/15 17:50:46;;;;;;;16.20;9.30;;;;;;;20.30;56.04;98937.91;272320;1273;22216;-84
2023/06/15 17:56:49;;;;;;;16.40;9.20;;;;;;;20.19;56.60;98944.27;272453;1274;22955;-83
2023/06/15 18:03:12;;;;;;;10.50;8.60;;;;;;;20.10;57.34;98944.90;272759;1273;22210;-84
2023/06/15 18:09:15;;;;;;;12.40;9.10;;;;;;;19.97;58.20;98949.60;272879;1263;23094;-84
2023/06/15 18:15:17;;;;;;;12.50;8.70;;;;;;;19.85;58.74;98957.64;271282;1262;22214;-84
2023/06/15 18:21:18;;;;;;;10.60;9.00;;;;;;;19.71;59.34;98955.70;272450;1264;22335;-85
2023/06/15 18:27:21;;;;;;;13.10;9.40;;;;;;;19.58;59.94;98956.36;271952;1273;22567;-85
2023/06/15 18:33:25;;;;;;;13.50;8.90;;;;;;;19.44;60.52;98954.67;271954;1273;22572;-84
2023/06/15 18:39:31;;;;;;;13.60;9.10;;;;;;;19.29;61.17;98953.30;271487;1262;23002;-84
2023/06/15 18:45:32;;;;;;;10.20;8.50;;;;;;;19.11;61.64;98957.92;271759;1273;22310;-84
2023/06/15 18:51:34;;;;;;;10.80;8.40;;;;;;;18.92;62.51;98959.72;271435;1272;22884;-84
2023/06/15 18:57:37;;;;;;;10.90;8.60;;;;;;;18.67;63.23;98966.38;271523;1273;25300;-84
2023/06/15 19:03:38;;;;;;;12.90;10.10;;;;;;;18.41;64.04;98972.84;270700;1273;26609;-84
2023/06/15 19:09:42;;;;;;;10.40;8.70;;;;;;;18.18;65.03;98978.14;271863;1273;22742;-84
2023/06/15 19:15:46;;;;;;;11.20;8.60;;;;;;;17.98;65.84;98980.50;271410;1273;23133;-84
2023/06/15 19:21:48;;;;;;;11.80;9.40;;;;;;;17.82;66.83;98990.84;270785;1273;22563;-84
2023/06/15 19:27:58;;;;;;;12.30;10.80;;;;;;;17.69;67.77;98998.98;270596;1272;22745;-84
2023/06/15 19:34:00;;;;;;;11.40;10.00;;;;;;;17.49;69.36;99005.25;269982;1272;22563;-85
2023/06/15 19:40:02;;;;;;;13.10;10.80;;;;;;;17.24;70.47;99006.58;270961;1268;22656;-84
2023/06/15 19:46:30;;;;;;;14.10;11.00;;;;;;;17.00;70.33;99005.35;270288;1272;22551;-83
2023/06/15 19:52:53;;;;;;;11.70;10.40;;;;;;;16.77;71.07;99006.00;270630;1273;22281;-83
2023/06/15 19:58:54;;;;;;;13.20;11.30;;;;;;;16.53;72.30;99013.34;272129;1262;23265;-84
2023/06/15 20:05:17;;;;;;;12.20;10.30;;;;;;;16.24;73.26;99017.13;271059;1270;23415;-84
2023/06/15 20:11:20;;;;;;;14.50;12.30;;;;;;;16.12;73.88;99025.39;271428;1273;22574;-84
2023/06/15 20:17:43;;;;;;;18.90;13.90;;;;;;;16.03;74.15;99027.85;272013;1273;22192;-83
2023/06/15 20:24:05;;;;;;;25.50;18.00;;;;;;;15.85;74.65;99028.73;272556;1273;22244;-84
2023/06/15 20:30:07;;;;;;;19.40;15.00;;;;;;;15.64;75.31;99029.88;272369;1273;22384;-84
2023/06/15 20:36:09;;;;;;;17.20;14.40;;;;;;;15.46;75.96;99026.40;272362;1273;22330;-85
2023/06/15 20:42:12;;;;;;;17.30;14.10;;;;;;;15.31;76.89;99022.39;272469;1273;22318;-83
2023/06/15 20:48:13;;;;;;;17.60;15.20;;;;;;;15.15;77.35;99022.34;272784;1274;22327;-83
2023/06/15 20:54:55;;;;;;;21.40;15.10;;;;;;;14.98;77.73;99022.99;272506;1272;22232;-83
2023/06/15 21:01:18;;;;;;;17.10;13.90;;;;;;;14.83;78.63;99018.29;272506;1273;22322;-83
2023/06/15 21:07:19;;;;;;;18.30;14.30;;;;;;;14.71;79.72;99012.05;272901;1274;22917;-83
2023/06/15 21:13:21;;;;;;;19.80;15.20;;;;;;;14.60;80.21;99004.55;272180;1257;23565;-84
2023/06/15 21:19:41;;;;;;;21.30;16.20;;;;;;;14.48;80.80;99003.81;271085;1273;22616;-84
2023/06/15 21:25:44;;;;;;;16.70;14.30;;;;;;;14.36;81.35;98997.96;270242;1272;22547;-83
2023/06/15 21:31:53;;;;;;;21.90;16.60;;;;;;;14.19;82.09;98997.14;270338;1260;23243;-83
2023/06/15 21:37:57;;;;;;;24.50;18.30;;;;;;;14.02;82.61;99000.09;269019;1272;25432;-83
2023/06/15 21:44:02;;;;;;;22.60;18.20;;;;;;;13.90;83.28;99001.08;268965;1272;24072;-83
2023/06/15 21:50:05;;;;;;;23.70;18.60;;;;;;;13.78;83.58;98999.12;271525;1272;22564;-83
2023/06/15 21:56:07;;;;;;;22.40;18.10;;;;;;;13.66;84.12;98997.73;270800;1272;22549;-83
2023/06/15 22:02:10;;;;;;;23.60;18.90;;;;;;;13.54;84.72;98999.38;269181;1265;24136;-83
2023/06/15 22:08:11;;;;;;;19.00;15.70;;;;;;;13.47;85.59;98996.64;269275;1272;22641;-83
2023/06/15 22:14:33;;;;;;;23.30;19.60;;;;;;;13.35;85.90;98995.77;271184;1262;22238;-83
2023/06/15 22:20:36;;;;;;;25.90;20.30;;;;;;;13.22;85.99;98993.02;272499;1259;22257;-83
2023/06/15 22:26:44;;;;;;;24.00;19.50;;;;;;;13.08;86.42;98987.98;272547;1274;22321;-83
2023/06/15 22:33:06;;;;;;;20.40;17.30;;;;;;;13.02;87.30;98982.89;271273;1265;22551;-84
2023/06/15 22:39:09;;;;;;;24.10;17.80;;;;;;;12.92;87.51;98976.25;271051;1259;22344;-84
2023/06/15 22:45:31;;;;;;;21.50;18.10;;;;;;;12.82;88.15;98976.93;271506;1273;22303;-83
2023/06/15 22:51:37;;;;;;;20.70;17.20;;;;;;;12.69;88.52;98974.64;270441;1273;22750;-82
2023/06/15 22:57:56;;;;;;;26.60;19.20;;;;;;;12.71;89.81;98967.10;269820;1273;23674;-83
2023/06/15 23:03:58;;;;;;;25.00;18.10;;;;;;;12.73;90.19;98968.13;269625;1262;23331;-82
2023/06/15 23:10:08;;;;;;;25.30;19.60;;;;;;;12.66;90.31;98965.20;269174;1268;23288;-83
2023/06/15 23:16:12;;;;;;;27.80;20.60;;;;;;;12.59;90.79;98967.79;269956;1273;22695;-84
2023/06/15 23:22:21;;;;;;;27.50;20.50;;;;;;;12.57;91.28;98962.75;271611;1262;23146;-83
2023/06/15 23:28:43;;;;;;;22.60;17.60;;;;;;;12.54;91.43;98962.04;272477;1259;22143;-83
2023/06/15 23:35:01;;;;;;;23.50;18.40;;;;;;;12.41;91.38;98962.16;269015;1262;22548;-83
2023/06/15 23:41:23;;;;;;;26.00;19.80;;;;;;;12.28;91.57;98956.55;269118;1273;24227;-83
2023/06/15 23:47:25;;;;;;;24.40;19.20;;;;;;;12.16;91.88;98951.72;268902;1271;23779;-83
2023/06/15 23:53:27;;;;;;;21.70;17.50;;;;;;;12.05;92.12;98947.75;268833;1258;24399;-83
2023/06/15 23:59:29;;;;;;;24.60;19.00;;;;;;;11.90;92.44;98948.38;270197;1259;22223;-84
